createdAt,value
2019-02-15T00:00:08.153Z,997.33
2019-02-15T00:01:08.065Z,997.36
2019-02-15T00:02:07.977Z,997.33
2019-02-15T00:03:07.889Z,997.33
2019-02-15T00:04:07.800Z,997.38
2019-02-15T00:05:07.713Z,997.35
2019-02-15T00:06:07.628Z,997.35
2019-02-15T00:07:07.537Z,997.34
2019-02-15T00:08:07.448Z,997.33
2019-02-15T00:09:07.363Z,997.34
2019-02-15T00:10:07.282Z,997.38
2019-02-15T00:11:07.188Z,997.40
2019-02-15T00:12:07.097Z,997.41
2019-02-15T00:13:13.345Z,997.43
2019-02-15T00:14:06.926Z,997.43
2019-02-15T00:15:06.841Z,997.43
2019-02-15T00:16:06.751Z,997.41
2019-02-15T00:17:06.663Z,997.35
2019-02-15T00:18:06.573Z,997.35
2019-02-15T00:19:06.491Z,997.32
2019-02-15T00:20:06.402Z,997.29
2019-02-15T00:21:06.314Z,997.26
2019-02-15T00:22:06.229Z,997.28
2019-02-15T00:23:06.139Z,997.27
2019-02-15T00:24:06.049Z,997.26
2019-02-15T00:25:05.965Z,997.30
2019-02-15T00:26:05.877Z,997.30
2019-02-15T00:27:05.789Z,997.36
2019-02-15T00:28:05.702Z,997.32
2019-02-15T00:29:05.613Z,997.34
2019-02-15T00:30:05.531Z,997.32
2019-02-15T00:31:05.443Z,997.30
2019-02-15T00:32:05.353Z,997.31
2019-02-15T00:33:05.263Z,997.30
2019-02-15T00:34:05.176Z,997.32
2019-02-15T00:35:05.096Z,997.33
2019-02-15T00:36:05.003Z,997.37
2019-02-15T00:37:04.915Z,997.35
2019-02-15T00:38:04.826Z,997.39
2019-02-15T00:39:04.744Z,997.35
2019-02-15T00:40:04.651Z,997.33
2019-02-15T00:41:04.565Z,997.40
2019-02-15T00:42:04.478Z,997.40
2019-02-15T00:43:04.385Z,997.34
2019-02-15T00:44:04.303Z,997.36
2019-02-15T00:45:04.213Z,997.34
2019-02-15T00:46:04.127Z,997.32
2019-02-15T00:47:04.040Z,997.32
2019-02-15T00:48:03.952Z,997.33
2019-02-15T00:49:03.866Z,997.33
2019-02-15T00:50:03.776Z,997.31
2019-02-15T00:51:03.692Z,997.27
2019-02-15T00:52:03.603Z,997.30
2019-02-15T00:53:03.515Z,997.26
2019-02-15T00:54:03.427Z,997.31
2019-02-15T00:55:03.340Z,997.28
2019-02-15T00:56:03.252Z,997.31
2019-02-15T00:57:03.162Z,997.29
2019-02-15T00:58:03.076Z,997.29
2019-02-15T00:59:02.987Z,997.31
2019-02-15T01:00:02.897Z,997.32
2019-02-15T01:01:02.816Z,997.33
2019-02-15T01:02:02.727Z,997.32
2019-02-15T01:03:02.639Z,997.33
2019-02-15T01:04:02.551Z,997.34
2019-02-15T01:05:02.466Z,997.32
2019-02-15T01:06:02.379Z,997.32
2019-02-15T01:07:02.283Z,997.30
2019-02-15T01:08:02.199Z,997.37
2019-02-15T01:09:02.108Z,997.36
2019-02-15T01:10:02.042Z,997.31
2019-02-15T01:11:01.936Z,997.33
2019-02-15T01:12:01.847Z,997.32
2019-02-15T01:13:01.765Z,997.35
2019-02-15T01:14:01.675Z,997.38
2019-02-15T01:15:01.590Z,997.35
2019-02-15T01:16:01.502Z,997.35
2019-02-15T01:17:01.410Z,997.34
2019-02-15T01:18:01.320Z,997.35
2019-02-15T01:19:01.235Z,997.32
2019-02-15T01:20:01.150Z,997.34
2019-02-15T01:21:01.065Z,997.30
2019-02-15T01:22:00.976Z,997.32
2019-02-15T01:23:00.884Z,997.37
2019-02-15T01:24:00.798Z,997.33
2019-02-15T01:25:00.709Z,997.36
2019-02-15T01:26:00.625Z,997.35
2019-02-15T01:27:00.540Z,997.36
2019-02-15T01:28:00.449Z,997.40
2019-02-15T01:29:00.358Z,997.37
2019-02-15T01:30:00.282Z,997.36
2019-02-15T01:31:00.185Z,997.35
2019-02-15T01:32:00.097Z,997.31
2019-02-15T01:33:00.009Z,997.31
2019-02-15T01:33:59.921Z,997.27
2019-02-15T01:34:59.833Z,997.27
2019-02-15T01:35:59.747Z,997.30
2019-02-15T01:36:59.658Z,997.25
2019-02-15T01:37:59.570Z,997.24
2019-02-15T01:38:59.480Z,997.22
2019-02-15T01:39:59.394Z,997.26
2019-02-15T01:40:59.310Z,997.22
2019-02-15T01:41:59.219Z,997.19
2019-02-15T01:42:59.132Z,997.16
2019-02-15T01:43:59.046Z,997.20
2019-02-15T01:44:58.961Z,997.16
2019-02-15T01:45:58.867Z,997.20
2019-02-15T01:46:58.790Z,997.17
2019-02-15T01:47:58.770Z,997.15
2019-02-15T01:48:58.604Z,997.18
2019-02-15T01:49:58.521Z,997.17
2019-02-15T01:50:58.430Z,997.20
2019-02-15T01:51:58.341Z,997.19
2019-02-15T01:52:58.255Z,997.19
2019-02-15T01:53:58.165Z,997.23
2019-02-15T01:54:58.081Z,997.21
2019-02-15T01:55:57.990Z,997.21
2019-02-15T01:56:57.901Z,997.18
2019-02-15T01:57:57.818Z,997.19
2019-02-15T01:58:57.732Z,997.18
2019-02-15T01:59:57.640Z,997.19
2019-02-15T02:00:57.553Z,997.16
2019-02-15T02:01:57.468Z,997.20
2019-02-15T02:02:57.373Z,997.20
2019-02-15T02:03:57.284Z,997.18
2019-02-15T02:04:57.199Z,997.17
2019-02-15T02:05:57.112Z,997.18
2019-02-15T02:06:57.027Z,997.15
2019-02-15T02:07:56.936Z,997.21
2019-02-15T02:08:56.853Z,997.19
2019-02-15T02:09:56.764Z,997.15
2019-02-15T02:10:56.674Z,997.18
2019-02-15T02:11:56.585Z,997.15
2019-02-15T02:12:56.500Z,997.13
2019-02-15T02:13:56.410Z,997.13
2019-02-15T02:14:56.322Z,997.13
2019-02-15T02:15:56.236Z,997.10
2019-02-15T02:16:56.141Z,997.10
2019-02-15T02:17:56.061Z,997.14
2019-02-15T02:18:55.968Z,997.10
2019-02-15T02:19:55.881Z,997.07
2019-02-15T02:20:55.799Z,997.08
2019-02-15T02:21:55.715Z,997.02
2019-02-15T02:22:55.625Z,997.04
2019-02-15T02:23:55.533Z,997.04
2019-02-15T02:24:55.444Z,997.05
2019-02-15T02:25:55.355Z,997.08
2019-02-15T02:26:55.267Z,997.10
2019-02-15T02:27:55.178Z,997.02
2019-02-15T02:28:55.101Z,997.05
2019-02-15T02:29:55.008Z,997.02
2019-02-15T02:30:54.918Z,997.01
2019-02-15T02:31:54.826Z,997.04
2019-02-15T02:32:54.739Z,997.04
2019-02-15T02:33:54.654Z,997.03
2019-02-15T02:34:54.566Z,997.05
2019-02-15T02:35:54.475Z,997.01
2019-02-15T02:36:54.387Z,997.00
2019-02-15T02:37:54.301Z,997.00
2019-02-15T02:38:54.212Z,996.99
2019-02-15T02:39:54.124Z,996.98
2019-02-15T02:40:54.035Z,997.04
2019-02-15T02:41:53.950Z,997.01
2019-02-15T02:42:53.873Z,997.08
2019-02-15T02:43:59.546Z,997.07
2019-02-15T02:44:53.684Z,997.08
2019-02-15T02:45:53.594Z,997.08
2019-02-15T02:46:53.510Z,997.06
2019-02-15T02:47:53.419Z,997.08
2019-02-15T02:48:53.348Z,997.09
2019-02-15T02:49:53.241Z,997.12
2019-02-15T02:50:53.163Z,997.10
2019-02-15T02:51:53.068Z,997.08
2019-02-15T02:52:52.979Z,997.09
2019-02-15T02:53:52.895Z,997.05
2019-02-15T02:54:52.820Z,997.07
2019-02-15T02:55:52.714Z,997.06
2019-02-15T02:56:52.628Z,997.07
2019-02-15T02:57:52.541Z,997.08
2019-02-15T02:58:52.448Z,997.11
2019-02-15T02:59:52.363Z,997.09
2019-02-15T03:00:52.275Z,997.11
2019-02-15T03:01:52.195Z,997.11
2019-02-15T03:02:52.100Z,997.07
2019-02-15T03:03:52.010Z,997.10
2019-02-15T03:04:51.922Z,997.08
2019-02-15T03:05:51.832Z,997.08
2019-02-15T03:06:51.750Z,997.06
2019-02-15T03:07:51.661Z,997.10
2019-02-15T03:08:51.571Z,997.02
2019-02-15T03:09:51.483Z,997.05
2019-02-15T03:10:51.394Z,997.03
2019-02-15T03:11:51.310Z,997.00
2019-02-15T03:12:51.217Z,997.01
2019-02-15T03:13:51.133Z,997.04
2019-02-15T03:14:51.041Z,996.99
2019-02-15T03:15:50.956Z,997.02
2019-02-15T03:16:50.864Z,997.02
2019-02-15T03:17:50.776Z,997.02
2019-02-15T03:18:50.690Z,997.02
2019-02-15T03:19:50.605Z,996.99
2019-02-15T03:20:50.513Z,997.03
2019-02-15T03:21:50.429Z,997.06
2019-02-15T03:22:50.338Z,997.00
2019-02-15T03:23:50.255Z,997.00
2019-02-15T03:24:50.160Z,997.01
2019-02-15T03:25:50.079Z,997.00
2019-02-15T03:26:49.991Z,996.97
2019-02-15T03:27:49.900Z,996.99
2019-02-15T03:28:49.807Z,996.96
2019-02-15T03:29:49.721Z,996.96
2019-02-15T03:30:49.631Z,996.99
2019-02-15T03:31:49.547Z,996.97
2019-02-15T03:32:49.461Z,996.97
2019-02-15T03:33:49.367Z,996.97
2019-02-15T03:34:49.282Z,997.01
2019-02-15T03:35:49.192Z,996.96
2019-02-15T03:36:49.130Z,996.97
2019-02-15T03:37:49.022Z,996.93
2019-02-15T03:38:48.929Z,996.92
2019-02-15T03:39:48.838Z,996.89
2019-02-15T03:40:48.752Z,996.90
2019-02-15T03:41:48.661Z,996.91
2019-02-15T03:42:48.577Z,996.90
2019-02-15T03:43:48.483Z,996.84
2019-02-15T03:44:48.399Z,996.87
2019-02-15T03:45:48.318Z,996.83
2019-02-15T03:46:48.222Z,996.87
2019-02-15T03:47:48.131Z,996.85
2019-02-15T03:48:48.039Z,996.83
2019-02-15T03:49:47.954Z,996.83
2019-02-15T03:50:47.873Z,996.83
2019-02-15T03:51:47.780Z,996.83
2019-02-15T03:52:47.701Z,996.81
2019-02-15T03:53:47.601Z,996.78
2019-02-15T03:54:47.514Z,996.76
2019-02-15T03:55:47.432Z,996.72
2019-02-15T03:56:47.332Z,996.77
2019-02-15T03:57:47.247Z,996.72
2019-02-15T03:58:47.157Z,996.75
2019-02-15T03:59:47.070Z,996.69
2019-02-15T04:00:46.980Z,996.72
2019-02-15T04:01:46.896Z,996.74
2019-02-15T04:02:46.804Z,996.70
2019-02-15T04:03:46.712Z,996.73
2019-02-15T04:04:46.638Z,996.71
2019-02-15T04:05:46.540Z,996.68
2019-02-15T04:06:46.450Z,996.68
2019-02-15T04:07:46.364Z,996.70
2019-02-15T04:08:46.275Z,996.70
2019-02-15T04:09:46.187Z,996.71
2019-02-15T04:10:46.101Z,996.67
2019-02-15T04:11:46.011Z,996.72
2019-02-15T04:12:45.926Z,996.70
2019-02-15T04:13:45.833Z,996.71
2019-02-15T04:14:45.744Z,996.70
2019-02-15T04:15:45.655Z,996.69
2019-02-15T04:16:45.568Z,996.71
2019-02-15T04:17:45.476Z,996.71
2019-02-15T04:18:45.390Z,996.76
2019-02-15T04:19:45.320Z,996.76
2019-02-15T04:20:45.224Z,996.76
2019-02-15T04:21:45.125Z,996.76
2019-02-15T04:22:45.042Z,996.77
2019-02-15T04:23:45.044Z,996.74
2019-02-15T04:24:44.857Z,996.77
2019-02-15T04:25:44.773Z,996.79
2019-02-15T04:26:44.685Z,996.75
2019-02-15T04:27:44.593Z,996.81
2019-02-15T04:28:44.509Z,996.80
2019-02-15T04:29:44.428Z,996.83
2019-02-15T04:30:44.334Z,996.83
2019-02-15T04:31:44.238Z,996.83
2019-02-15T04:32:44.155Z,996.80
2019-02-15T04:33:44.067Z,996.80
2019-02-15T04:34:43.976Z,996.78
2019-02-15T04:35:43.889Z,996.69
2019-02-15T04:36:43.800Z,996.76
2019-02-15T04:37:43.711Z,996.67
2019-02-15T04:38:43.624Z,996.72
2019-02-15T04:39:43.541Z,996.67
2019-02-15T04:40:43.447Z,996.68
2019-02-15T04:41:43.355Z,996.65
2019-02-15T04:42:43.269Z,996.64
2019-02-15T04:43:43.184Z,996.61
2019-02-15T04:44:43.285Z,996.63
2019-02-15T04:45:43.005Z,996.61
2019-02-15T04:46:42.917Z,996.58
2019-02-15T04:47:42.829Z,996.56
2019-02-15T04:48:42.740Z,996.55
2019-02-15T04:49:42.644Z,996.59
2019-02-15T04:50:42.563Z,996.56
2019-02-15T04:51:42.479Z,996.53
2019-02-15T04:52:42.388Z,996.52
2019-02-15T04:53:42.296Z,996.55
2019-02-15T04:54:42.206Z,996.50
2019-02-15T04:55:42.122Z,996.53
2019-02-15T04:56:42.030Z,996.50
2019-02-15T04:57:41.943Z,996.50
2019-02-15T04:58:41.855Z,996.51
2019-02-15T04:59:41.759Z,996.52
2019-02-15T05:00:41.675Z,996.51
2019-02-15T05:01:41.589Z,996.57
2019-02-15T05:02:41.501Z,996.54
2019-02-15T05:03:41.412Z,996.57
2019-02-15T05:04:41.324Z,996.56
2019-02-15T05:05:41.237Z,996.56
2019-02-15T05:06:41.150Z,996.56
2019-02-15T05:07:41.057Z,996.54
2019-02-15T05:08:40.983Z,996.54
2019-02-15T05:09:40.884Z,996.55
2019-02-15T05:10:40.792Z,996.53
2019-02-15T05:11:40.703Z,996.54
2019-02-15T05:12:40.615Z,996.49
2019-02-15T05:13:40.524Z,996.47
2019-02-15T05:14:40.436Z,996.47
2019-02-15T05:15:40.348Z,996.50
2019-02-15T05:16:40.262Z,996.44
2019-02-15T05:17:40.173Z,996.45
2019-02-15T05:18:40.086Z,996.50
2019-02-15T05:19:39.994Z,996.49
2019-02-15T05:20:39.905Z,996.48
2019-02-15T05:21:39.819Z,996.44
2019-02-15T05:22:39.731Z,996.46
2019-02-15T05:23:39.641Z,996.46
2019-02-15T05:24:39.557Z,996.45
2019-02-15T05:25:39.472Z,996.45
2019-02-15T05:26:39.371Z,996.45
2019-02-15T05:27:39.284Z,996.47
2019-02-15T05:28:39.194Z,996.49
2019-02-15T05:29:39.111Z,996.47
2019-02-15T05:30:39.021Z,996.46
2019-02-15T05:31:38.939Z,996.49
2019-02-15T05:32:38.841Z,996.51
2019-02-15T05:33:38.755Z,996.55
2019-02-15T05:34:38.663Z,996.52
2019-02-15T05:35:38.577Z,996.56
2019-02-15T05:36:38.491Z,996.55
2019-02-15T05:39:41.775Z,996.60
2019-02-15T05:40:19.049Z,996.61
2019-02-15T05:42:23.335Z,996.60
2019-02-15T05:43:23.231Z,996.59
2019-02-15T05:45:39.393Z,996.61
2019-02-15T05:46:39.288Z,996.59
2019-02-15T05:48:43.567Z,996.60
2019-02-15T05:49:43.471Z,996.68
2019-02-15T05:51:47.799Z,996.70
2019-02-15T05:52:47.651Z,996.67
2019-02-15T05:54:51.933Z,996.64
2019-02-15T05:55:51.920Z,996.66
2019-02-15T05:57:56.103Z,996.66
2019-02-15T05:58:56.016Z,996.70
2019-02-15T06:01:00.294Z,996.63
2019-02-15T06:02:00.192Z,996.66
2019-02-15T06:04:04.465Z,996.67
2019-02-15T06:05:04.371Z,996.64
2019-02-15T06:07:08.672Z,996.68
2019-02-15T06:08:08.561Z,996.67
2019-02-15T06:10:12.870Z,996.69
2019-02-15T06:11:12.750Z,996.69
2019-02-15T06:13:16.549Z,996.70
2019-02-15T06:14:16.451Z,996.77
2019-02-15T06:16:09.687Z,996.77
2019-02-15T06:17:09.593Z,996.80
2019-02-15T06:19:13.855Z,996.83
2019-02-15T06:20:13.770Z,996.84
2019-02-15T06:21:13.681Z,996.84
2019-02-15T06:22:13.592Z,996.84
2019-02-15T06:23:13.506Z,996.84
2019-02-15T06:24:13.416Z,996.82
2019-02-15T06:25:13.333Z,996.80
2019-02-15T06:26:13.241Z,996.81
2019-02-15T06:27:13.142Z,996.79
2019-02-15T06:28:13.058Z,996.75
2019-02-15T06:29:12.968Z,996.79
2019-02-15T06:30:12.887Z,996.78
2019-02-15T06:31:12.793Z,996.77
2019-02-15T06:32:12.723Z,996.75
2019-02-15T06:33:12.613Z,996.70
2019-02-15T06:34:12.528Z,996.70
2019-02-15T06:35:12.432Z,996.69
2019-02-15T06:36:12.344Z,996.72
2019-02-15T06:37:12.261Z,996.69
2019-02-15T06:38:12.172Z,996.71
2019-02-15T06:39:12.089Z,996.76
2019-02-15T06:40:11.997Z,996.75
2019-02-15T06:41:12.548Z,996.76
2019-02-15T06:42:11.817Z,996.79
2019-02-15T06:43:11.727Z,996.83
2019-02-15T06:44:11.639Z,996.81
2019-02-15T06:45:11.549Z,996.78
2019-02-15T06:46:11.464Z,996.78
2019-02-15T06:47:11.372Z,996.81
2019-02-15T06:48:11.290Z,996.82
2019-02-15T06:49:11.193Z,996.84
2019-02-15T06:50:11.103Z,996.87
2019-02-15T06:51:11.018Z,996.87
2019-02-15T06:52:10.945Z,996.90
2019-02-15T06:53:10.842Z,996.89
2019-02-15T06:54:10.753Z,996.88
2019-02-15T06:55:10.665Z,996.88
2019-02-15T06:56:10.581Z,996.91
2019-02-15T06:57:10.488Z,996.94
2019-02-15T06:58:10.394Z,996.93
2019-02-15T06:59:10.309Z,996.98
2019-02-15T07:00:10.226Z,996.95
2019-02-15T07:01:10.134Z,996.96
2019-02-15T07:02:10.044Z,996.99
2019-02-15T07:03:09.957Z,997.03
2019-02-15T07:04:09.865Z,997.03
2019-02-15T07:05:09.778Z,997.08
2019-02-15T07:06:09.690Z,997.09
2019-02-15T07:07:09.602Z,997.05
2019-02-15T07:08:09.513Z,997.05
2019-02-15T07:09:09.425Z,997.09
2019-02-15T07:10:09.335Z,997.13
2019-02-15T07:11:09.247Z,997.12
2019-02-15T07:12:09.161Z,997.12
2019-02-15T07:13:09.074Z,997.09
2019-02-15T07:14:08.982Z,997.11
2019-02-15T07:15:08.893Z,997.13
2019-02-15T07:16:08.806Z,997.15
2019-02-15T07:17:08.720Z,997.16
2019-02-15T07:18:08.629Z,997.15
2019-02-15T07:19:08.538Z,997.14
2019-02-15T07:20:08.457Z,997.14
2019-02-15T07:21:08.368Z,997.11
2019-02-15T07:22:08.277Z,997.16
2019-02-15T07:23:08.185Z,997.16
2019-02-15T07:24:08.101Z,997.17
2019-02-15T07:25:08.012Z,997.15
2019-02-15T07:26:07.926Z,997.19
2019-02-15T07:27:07.833Z,997.18
2019-02-15T07:28:07.744Z,997.21
2019-02-15T07:29:07.655Z,997.19
2019-02-15T07:30:07.570Z,997.18
2019-02-15T07:31:07.483Z,997.18
2019-02-15T07:32:07.389Z,997.17
2019-02-15T07:33:07.301Z,997.21
2019-02-15T07:34:07.212Z,997.18
2019-02-15T07:35:07.126Z,997.17
2019-02-15T07:36:07.073Z,997.22
2019-02-15T07:37:06.949Z,997.21
2019-02-15T07:38:06.859Z,997.21
2019-02-15T07:39:06.775Z,997.19
2019-02-15T07:40:06.685Z,997.22
2019-02-15T07:41:06.597Z,997.23
2019-02-15T07:42:06.507Z,997.24
2019-02-15T07:43:06.422Z,997.25
2019-02-15T07:44:06.336Z,997.24
2019-02-15T07:45:06.248Z,997.22
2019-02-15T07:46:06.158Z,997.18
2019-02-15T07:47:06.067Z,997.15
2019-02-15T07:48:05.980Z,997.12
2019-02-15T07:49:05.897Z,997.14
2019-02-15T07:50:05.802Z,997.11
2019-02-15T07:51:09.502Z,997.12
2019-02-15T07:52:05.626Z,997.13
2019-02-15T07:53:05.537Z,997.13
2019-02-15T07:54:05.453Z,997.14
2019-02-15T07:55:05.365Z,997.12
2019-02-15T07:56:05.274Z,997.15
2019-02-15T07:57:05.183Z,997.16
2019-02-15T07:58:05.103Z,997.18
2019-02-15T07:59:05.009Z,997.19
2019-02-15T08:00:04.923Z,997.21
2019-02-15T08:01:04.832Z,997.16
2019-02-15T08:02:04.748Z,997.19
2019-02-15T08:03:04.656Z,997.15
2019-02-15T08:04:04.570Z,997.12
2019-02-15T08:05:04.480Z,997.12
2019-02-15T08:06:04.394Z,997.12
2019-02-15T08:07:04.306Z,997.12
2019-02-15T08:08:04.228Z,997.16
2019-02-15T08:09:04.130Z,997.16
2019-02-15T08:10:04.039Z,997.16
2019-02-15T08:11:03.951Z,997.16
2019-02-15T08:12:03.863Z,997.18
2019-02-15T08:13:03.773Z,997.20
2019-02-15T08:14:03.688Z,997.21
2019-02-15T08:15:03.599Z,997.21
2019-02-15T08:16:03.511Z,997.20
2019-02-15T08:17:03.423Z,997.21
2019-02-15T08:18:03.338Z,997.18
2019-02-15T08:19:03.249Z,997.18
2019-02-15T08:20:03.163Z,997.20
2019-02-15T08:21:03.073Z,997.16
2019-02-15T08:22:02.987Z,997.16
2019-02-15T08:23:02.899Z,997.14
2019-02-15T08:24:02.815Z,997.16
2019-02-15T08:25:02.975Z,997.15
2019-02-15T08:26:02.638Z,997.16
2019-02-15T08:27:02.548Z,997.20
2019-02-15T08:28:02.462Z,997.18
2019-02-15T08:29:02.374Z,997.18
2019-02-15T08:30:02.304Z,997.20
2019-02-15T08:31:02.197Z,997.21
2019-02-15T08:32:02.110Z,997.16
2019-02-15T08:33:02.020Z,997.20
2019-02-15T08:34:01.942Z,997.17
2019-02-15T08:35:01.849Z,997.17
2019-02-15T08:36:01.763Z,997.15
2019-02-15T08:37:01.673Z,997.15
2019-02-15T08:38:01.599Z,997.13
2019-02-15T08:39:01.501Z,997.16
2019-02-15T08:40:01.410Z,997.20
2019-02-15T08:41:01.326Z,997.24
2019-02-15T08:42:04.350Z,997.19
2019-02-15T08:43:01.148Z,997.21
2019-02-15T08:44:01.061Z,997.18
2019-02-15T08:45:00.975Z,997.18
2019-02-15T08:46:03.320Z,997.14
2019-02-15T08:47:00.798Z,997.17
2019-02-15T08:48:00.712Z,997.17
2019-02-15T08:49:00.625Z,997.19
2019-02-15T08:50:00.537Z,997.20
2019-02-15T08:51:00.451Z,997.18
2019-02-15T08:52:00.363Z,997.20
2019-02-15T08:53:00.277Z,997.19
2019-02-15T08:54:00.190Z,997.22
2019-02-15T08:55:00.280Z,997.20
2019-02-15T08:56:00.014Z,997.18
2019-02-15T08:56:59.926Z,997.15
2019-02-15T08:57:59.841Z,997.15
2019-02-15T08:58:59.755Z,997.13
2019-02-15T08:59:59.668Z,997.17
2019-02-15T09:00:59.580Z,997.16
2019-02-15T09:01:59.493Z,997.18
2019-02-15T09:02:59.405Z,997.18
2019-02-15T09:03:59.322Z,997.17
2019-02-15T09:04:59.229Z,997.19
2019-02-15T09:05:59.144Z,997.19
2019-02-15T09:06:59.058Z,997.19
2019-02-15T09:07:58.972Z,997.15
2019-02-15T09:08:58.882Z,997.15
2019-02-15T09:09:58.798Z,997.11
2019-02-15T09:10:58.715Z,997.13
2019-02-15T09:11:58.624Z,997.12
2019-02-15T09:12:58.538Z,997.11
2019-02-15T09:13:58.448Z,997.11
2019-02-15T09:14:58.366Z,997.13
2019-02-15T09:15:58.282Z,997.14
2019-02-15T09:16:58.185Z,997.12
2019-02-15T09:17:58.104Z,997.14
2019-02-15T09:18:58.016Z,997.14
2019-02-15T09:19:57.929Z,997.12
2019-02-15T09:20:57.842Z,997.13
2019-02-15T09:21:57.759Z,997.14
2019-02-15T09:22:57.674Z,997.12
2019-02-15T09:23:57.586Z,997.11
2019-02-15T09:24:57.500Z,997.08
2019-02-15T09:25:57.410Z,997.05
2019-02-15T09:26:57.322Z,997.10
2019-02-15T09:27:57.242Z,997.08
2019-02-15T09:28:57.148Z,997.08
2019-02-15T09:29:57.063Z,997.07
2019-02-15T09:30:56.976Z,997.09
2019-02-15T09:31:56.891Z,997.07
2019-02-15T09:32:56.804Z,997.04
2019-02-15T09:33:56.717Z,997.05
2019-02-15T09:34:56.632Z,997.06
2019-02-15T09:35:56.547Z,997.08
2019-02-15T09:36:56.459Z,997.09
2019-02-15T09:37:56.374Z,997.08
2019-02-15T09:38:56.285Z,997.09
2019-02-15T09:39:56.205Z,997.10
2019-02-15T09:40:56.117Z,997.10
2019-02-15T09:41:56.031Z,997.07
2019-02-15T09:42:55.941Z,997.07
2019-02-15T09:43:55.855Z,997.05
2019-02-15T09:44:55.771Z,997.09
2019-02-15T09:45:55.684Z,997.07
2019-02-15T09:46:55.602Z,997.09
2019-02-15T09:47:55.515Z,997.04
2019-02-15T09:48:55.427Z,997.05
2019-02-15T09:49:55.338Z,997.05
2019-02-15T09:50:55.253Z,997.06
2019-02-15T09:51:55.641Z,997.06
2019-02-15T09:52:55.082Z,997.02
2019-02-15T09:53:54.999Z,997.06
2019-02-15T09:54:54.908Z,997.03
2019-02-15T09:55:54.823Z,997.03
2019-02-15T09:56:54.736Z,997.04
2019-02-15T09:57:54.649Z,997.04
2019-02-15T09:58:54.560Z,997.06
2019-02-15T09:59:54.476Z,997.07
2019-02-15T10:00:54.393Z,997.05
2019-02-15T10:01:54.305Z,997.08
2019-02-15T10:02:54.219Z,997.08
2019-02-15T10:03:55.294Z,997.06
2019-02-15T10:04:54.046Z,997.05
2019-02-15T10:05:53.960Z,997.04
2019-02-15T10:06:53.877Z,997.05
2019-02-15T10:07:53.791Z,997.08
2019-02-15T10:08:53.708Z,997.07
2019-02-15T10:09:53.621Z,997.09
2019-02-15T10:10:53.531Z,997.05
2019-02-15T10:11:53.449Z,997.09
2019-02-15T10:12:53.362Z,997.11
2019-02-15T10:13:53.277Z,997.08
2019-02-15T10:14:53.192Z,997.06
2019-02-15T10:15:53.108Z,997.05
2019-02-15T10:16:53.018Z,997.03
2019-02-15T10:17:52.937Z,997.03
2019-02-15T10:18:52.856Z,997.06
2019-02-15T10:19:52.767Z,997.10
2019-02-15T10:20:52.678Z,997.06
2019-02-15T10:21:52.592Z,997.06
2019-02-15T10:22:52.506Z,997.08
2019-02-15T10:23:52.424Z,997.07
2019-02-15T10:24:52.597Z,997.04
2019-02-15T10:25:52.250Z,997.06
2019-02-15T10:26:52.170Z,997.06
2019-02-15T10:27:52.081Z,997.03
2019-02-15T10:28:52.003Z,997.05
2019-02-15T10:29:51.913Z,997.01
2019-02-15T10:30:51.828Z,997.04
2019-02-15T10:31:51.746Z,997.03
2019-02-15T10:32:51.657Z,997.03
2019-02-15T10:33:51.571Z,997.01
2019-02-15T10:34:51.485Z,997.02
2019-02-15T11:19:18.772Z,996.47
2019-02-15T11:20:18.710Z,996.47
2019-02-15T12:16:32.110Z,996.02
2019-02-15T12:17:32.022Z,995.99
2019-02-15T12:19:36.410Z,995.97
2019-02-15T12:20:36.311Z,995.98
2019-02-15T12:22:40.666Z,995.99
2019-02-15T12:23:40.514Z,995.95
2019-02-15T12:25:44.881Z,995.88
2019-02-15T12:26:44.759Z,995.86
2019-02-15T12:28:49.101Z,995.89
2019-02-15T12:29:49.023Z,995.89
2019-02-15T12:31:53.430Z,995.82
2019-02-15T12:32:53.317Z,995.84
2019-02-15T12:36:40.779Z,995.74
2019-02-15T12:37:40.651Z,995.75
2019-02-15T12:39:45.062Z,995.72
2019-02-15T12:40:44.897Z,995.66
2019-02-15T12:42:49.255Z,995.65
2019-02-15T12:43:49.147Z,995.66
2019-02-15T12:45:53.569Z,995.60
2019-02-15T12:46:53.408Z,995.59
2019-02-15T12:48:57.809Z,995.53
2019-02-15T12:49:57.691Z,995.51
2019-02-15T12:52:02.002Z,995.48
2019-02-15T12:53:01.917Z,995.46
2019-02-15T12:55:07.267Z,995.45
2019-02-15T12:56:07.163Z,995.45
2019-02-15T12:58:14.191Z,995.41
2019-02-15T12:59:13.954Z,995.42
2019-02-15T13:01:19.287Z,995.37
2019-02-15T13:02:19.208Z,995.38
2019-02-15T13:04:23.593Z,995.37
2019-02-15T13:05:23.454Z,995.36
2019-02-15T13:07:16.775Z,995.35
2019-02-15T13:08:16.639Z,995.35
2019-02-15T13:10:21.016Z,995.30
2019-02-15T13:11:20.898Z,995.28
2019-02-15T13:13:26.860Z,995.25
2019-02-15T13:14:25.140Z,995.23
2019-02-15T13:16:29.482Z,995.23
2019-02-15T13:17:29.390Z,995.21
2019-02-15T13:19:33.754Z,995.19
2019-02-15T13:20:33.632Z,995.22
2019-02-15T13:22:37.966Z,995.17
2019-02-15T13:23:37.864Z,995.16
2019-02-15T13:25:42.281Z,995.16
2019-02-15T13:26:42.110Z,995.16
2019-02-15T13:28:47.471Z,995.20
2019-02-15T13:29:47.346Z,995.15
2019-02-15T13:31:51.722Z,995.18
2019-02-15T13:32:51.576Z,995.18
2019-02-15T13:34:55.997Z,995.18
2019-02-15T13:35:55.806Z,995.18
2019-02-15T13:38:01.209Z,995.09
2019-02-15T13:39:01.129Z,995.09
2019-02-15T13:40:01.059Z,995.07
2019-02-15T13:41:00.985Z,995.04
2019-02-15T13:42:00.910Z,995.04
2019-02-15T13:43:00.836Z,995.04
2019-02-15T13:44:00.761Z,995.05
2019-02-15T13:45:01.150Z,995.06
2019-02-15T13:46:00.648Z,995.06
2019-02-15T13:47:00.540Z,995.04
2019-02-15T13:48:00.464Z,994.99
2019-02-15T13:49:00.392Z,994.97
2019-02-15T13:50:00.415Z,994.94
2019-02-15T13:51:00.239Z,994.90
2019-02-15T13:52:00.171Z,994.86
2019-02-15T13:53:00.091Z,994.85
2019-02-15T13:54:00.017Z,994.82
2019-02-15T13:54:59.941Z,994.81
2019-02-15T13:55:59.867Z,994.81
2019-02-15T13:56:59.793Z,994.78
2019-02-15T13:57:59.714Z,994.80
2019-02-15T13:58:59.643Z,994.79
2019-02-15T13:59:59.567Z,994.79
2019-02-15T14:00:59.492Z,994.76
2019-02-15T14:01:59.413Z,994.76
2019-02-15T14:02:59.346Z,994.78
2019-02-15T14:03:59.268Z,994.79
2019-02-15T14:04:59.192Z,994.78
2019-02-15T14:05:59.128Z,994.78
2019-02-15T14:06:59.098Z,994.78
2019-02-15T14:07:58.964Z,994.75
2019-02-15T14:08:58.893Z,994.78
2019-02-15T14:09:58.818Z,994.75
2019-02-15T14:10:58.742Z,994.72
2019-02-15T14:11:58.665Z,994.70
2019-02-15T14:12:58.591Z,994.66
2019-02-15T14:13:58.530Z,994.70
2019-02-15T14:14:58.441Z,994.70
2019-02-15T14:15:58.369Z,994.68
2019-02-15T14:16:58.289Z,994.68
2019-02-15T14:17:58.214Z,994.70
2019-02-15T14:18:58.141Z,994.68
2019-02-15T14:19:58.085Z,994.68
2019-02-15T14:20:57.988Z,994.69
2019-02-15T14:21:57.912Z,994.65
2019-02-15T14:22:57.898Z,994.68
2019-02-15T14:23:57.770Z,994.67
2019-02-15T14:24:57.688Z,994.66
2019-02-15T14:25:57.611Z,994.67
2019-02-15T14:26:57.539Z,994.66
2019-02-15T14:27:57.467Z,994.64
2019-02-15T14:28:57.389Z,994.64
2019-02-15T14:29:57.311Z,994.61
2019-02-15T14:30:57.240Z,994.60
2019-02-15T14:31:57.163Z,994.63
2019-02-15T14:32:57.087Z,994.56
2019-02-15T14:33:57.010Z,994.62
2019-02-15T14:34:56.934Z,994.58
2019-02-15T14:35:56.863Z,994.60
2019-02-15T14:36:56.784Z,994.63
2019-02-15T14:37:56.711Z,994.61
2019-02-15T14:38:56.637Z,994.57
2019-02-15T14:39:56.566Z,994.61
2019-02-15T14:40:56.487Z,994.61
2019-02-15T14:41:56.411Z,994.56
2019-02-15T14:42:56.335Z,994.57
2019-02-15T14:43:56.264Z,994.60
2019-02-15T14:44:56.186Z,994.60
2019-02-15T14:45:56.117Z,994.58
2019-02-15T14:46:56.035Z,994.56
2019-02-15T14:47:55.964Z,994.53
2019-02-15T14:48:55.890Z,994.53
2019-02-15T14:49:55.816Z,994.54
2019-02-15T14:50:55.743Z,994.57